sensor_id;sensor_type;location;lat;lon;timestamp;pressure;altitude;pressure_sealevel;temperature;humidity
22333;BME280;11334;36.986;-121.936;2023-07-09T00:00:50;100780.22;;;33.30;30.55
22333;BME280;11334;36.986;-121.936;2023-07-09T00:03:18;100784.00;;;33.60;30.50
22333;BME280;11334;36.986;-121.936;2023-07-09T00:05:49;100785.84;;;33.65;30.13
22333;BME280;11334;36.986;-121.936;2023-07-09T00:08:35;100785.94;;;33.73;29.84
22333;BME280;11334;36.986;-121.936;2023-07-09T00:11:04;100781.88;;;33.71;30.20
22333;BME280;11334;36.986;-121.936;2023-07-09T00:13:30;100779.06;;;33.76;30.12
22333;BME280;11334;36.986;-121.936;2023-07-09T00:15:59;100787.69;;;33.82;30.41
22333;BME280;11334;36.986;-121.936;2023-07-09T00:18:26;100786.88;;;33.82;30.45
22333;BME280;11334;36.986;-121.936;2023-07-09T00:20:52;100790.13;;;33.97;30.13
22333;BME280;11334;36.986;-121.936;2023-07-09T00:23:19;100781.38;;;33.82;30.32
22333;BME280;11334;36.986;-121.936;2023-07-09T00:25:45;100794.59;;;34.07;29.53
22333;BME280;11334;36.986;-121.936;2023-07-09T00:28:13;100785.00;;;34.04;29.96
22333;BME280;11334;36.986;-121.936;2023-07-09T00:30:40;100788.34;;;34.14;29.46
22333;BME280;11334;36.986;-121.936;2023-07-09T00:33:11;100789.63;;;33.95;29.81
22333;BME280;11334;36.986;-121.936;2023-07-09T00:35:42;100777.53;;;33.83;30.19
22333;BME280;11334;36.986;-121.936;2023-07-09T00:38:13;100776.34;;;33.97;29.63
22333;BME280;11334;36.986;-121.936;2023-07-09T00:40:46;100774.69;;;34.09;29.69
22333;BME280;11334;36.986;-121.936;2023-07-09T00:43:15;100782.22;;;34.31;29.26
22333;BME280;11334;36.986;-121.936;2023-07-09T00:45:42;100775.97;;;34.39;29.17
22333;BME280;11334;36.986;-121.936;2023-07-09T00:48:13;100771.78;;;34.41;29.45
22333;BME280;11334;36.986;-121.936;2023-07-09T00:50:50;100777.16;;;34.24;29.65
22333;BME280;11334;36.986;-121.936;2023-07-09T00:53:22;100769.97;;;34.37;29.37
22333;BME280;11334;36.986;-121.936;2023-07-09T00:56:13;100768.47;;;34.31;29.69
22333;BME280;11334;36.986;-121.936;2023-07-09T00:58:42;100758.88;;;34.28;29.35
22333;BME280;11334;36.986;-121.936;2023-07-09T01:01:15;100765.25;;;34.37;29.24
22333;BME280;11334;36.986;-121.936;2023-07-09T01:03:49;100770.66;;;34.42;29.15
22333;BME280;11334;36.986;-121.936;2023-07-09T01:06:23;100772.34;;;34.51;29.08
22333;BME280;11334;36.986;-121.936;2023-07-09T01:08:55;100767.34;;;34.32;29.36
22333;BME280;11334;36.986;-121.936;2023-07-09T01:11:22;100771.09;;;34.36;29.52
22333;BME280;11334;36.986;-121.936;2023-07-09T01:13:54;100751.94;;;34.17;29.76
22333;BME280;11334;36.986;-121.936;2023-07-09T01:16:24;100763.59;;;34.28;29.55
22333;BME280;11334;36.986;-121.936;2023-07-09T01:18:51;100759.91;;;34.19;29.95
22333;BME280;11334;36.986;-121.936;2023-07-09T01:21:18;100765.22;;;34.29;29.86
22333;BME280;11334;36.986;-121.936;2023-07-09T01:23:46;100764.19;;;34.25;29.81
22333;BME280;11334;36.986;-121.936;2023-07-09T01:26:15;100769.75;;;33.98;30.40
22333;BME280;11334;36.986;-121.936;2023-07-09T01:28:41;100775.16;;;33.76;30.76
22333;BME280;11334;36.986;-121.936;2023-07-09T01:31:10;100770.34;;;33.29;31.21
22333;BME280;11334;36.986;-121.936;2023-07-09T01:33:37;100773.72;;;33.39;31.17
22333;BME280;11334;36.986;-121.936;2023-07-09T01:36:17;100779.84;;;33.05;31.91
22333;BME280;11334;36.986;-121.936;2023-07-09T01:38:44;100763.47;;;32.81;31.71
22333;BME280;11334;36.986;-121.936;2023-07-09T01:41:10;100777.00;;;32.23;32.15
22333;BME280;11334;36.986;-121.936;2023-07-09T01:43:40;100779.63;;;32.33;32.14
22333;BME280;11334;36.986;-121.936;2023-07-09T01:46:07;100777.44;;;31.94;32.95
22333;BME280;11334;36.986;-121.936;2023-07-09T01:48:34;100776.84;;;31.74;34.01
22333;BME280;11334;36.986;-121.936;2023-07-09T01:51:11;100769.69;;;31.54;33.85
22333;BME280;11334;36.986;-121.936;2023-07-09T01:53:39;100777.69;;;31.51;34.20
22333;BME280;11334;36.986;-121.936;2023-07-09T01:56:06;100778.13;;;31.35;33.57
22333;BME280;11334;36.986;-121.936;2023-07-09T01:58:36;100784.13;;;31.09;34.11
22333;BME280;11334;36.986;-121.936;2023-07-09T02:01:07;100784.31;;;31.17;33.98
22333;BME280;11334;36.986;-121.936;2023-07-09T02:03:34;100791.78;;;30.79;34.45
22333;BME280;11334;36.986;-121.936;2023-07-09T02:06:00;100792.09;;;30.77;35.00
22333;BME280;11334;36.986;-121.936;2023-07-09T02:08:28;100797.34;;;30.64;34.91
22333;BME280;11334;36.986;-121.936;2023-07-09T02:10:54;100795.47;;;30.64;34.81
22333;BME280;11334;36.986;-121.936;2023-07-09T02:13:20;100799.00;;;30.65;35.20
22333;BME280;11334;36.986;-121.936;2023-07-09T02:15:46;100796.34;;;30.55;34.83
22333;BME280;11334;36.986;-121.936;2023-07-09T02:18:14;100804.53;;;30.12;36.34
22333;BME280;11334;36.986;-121.936;2023-07-09T02:20:40;100802.03;;;30.21;36.28
22333;BME280;11334;36.986;-121.936;2023-07-09T02:23:07;100802.91;;;30.06;35.92
22333;BME280;11334;36.986;-121.936;2023-07-09T02:25:34;100809.31;;;29.82;36.42
22333;BME280;11334;36.986;-121.936;2023-07-09T02:28:04;100808.84;;;29.56;36.83
22333;BME280;11334;36.986;-121.936;2023-07-09T02:30:33;100820.66;;;29.31;37.27
22333;BME280;11334;36.986;-121.936;2023-07-09T02:32:59;100814.91;;;29.13;38.08
22333;BME280;11334;36.986;-121.936;2023-07-09T02:35:25;100821.69;;;28.47;38.77
22333;BME280;11334;36.986;-121.936;2023-07-09T02:37:51;100823.84;;;28.30;39.55
22333;BME280;11334;36.986;-121.936;2023-07-09T02:40:18;100824.81;;;28.04;40.01
22333;BME280;11334;36.986;-121.936;2023-07-09T02:42:44;100830.13;;;27.75;40.66
22333;BME280;11334;36.986;-121.936;2023-07-09T02:45:11;100828.91;;;27.46;41.08
22333;BME280;11334;36.986;-121.936;2023-07-09T02:47:37;100840.66;;;27.16;41.42
22333;BME280;11334;36.986;-121.936;2023-07-09T02:50:03;100841.59;;;27.00;42.17
22333;BME280;11334;36.986;-121.936;2023-07-09T02:52:30;100835.78;;;26.61;43.04
22333;BME280;11334;36.986;-121.936;2023-07-09T02:54:56;100844.75;;;26.35;43.84
22333;BME280;11334;36.986;-121.936;2023-07-09T02:57:22;100838.19;;;26.10;43.84
22333;BME280;11334;36.986;-121.936;2023-07-09T02:59:48;100853.44;;;25.90;44.77
22333;BME280;11334;36.986;-121.936;2023-07-09T03:02:15;100850.94;;;25.67;45.48
22333;BME280;11334;36.986;-121.936;2023-07-09T03:04:41;100849.66;;;25.37;46.33
22333;BME280;11334;36.986;-121.936;2023-07-09T03:07:07;100860.06;;;25.24;46.45
22333;BME280;11334;36.986;-121.936;2023-07-09T03:09:33;100865.47;;;25.07;47.32
22333;BME280;11334;36.986;-121.936;2023-07-09T03:11:59;100858.78;;;24.82;47.36
22333;BME280;11334;36.986;-121.936;2023-07-09T03:14:26;100867.78;;;24.55;48.60
22333;BME280;11334;36.986;-121.936;2023-07-09T03:16:52;100862.19;;;24.45;48.89
22333;BME280;11334;36.986;-121.936;2023-07-09T03:19:18;100865.19;;;24.33;49.99
22333;BME280;11334;36.986;-121.936;2023-07-09T03:21:44;100872.03;;;24.24;50.11
22333;BME280;11334;36.986;-121.936;2023-07-09T03:24:11;100876.09;;;24.10;50.84
22333;BME280;11334;36.986;-121.936;2023-07-09T03:26:45;100872.56;;;24.10;50.27
22333;BME280;11334;36.986;-121.936;2023-07-09T03:29:11;100884.00;;;23.89;51.81
22333;BME280;11334;36.986;-121.936;2023-07-09T03:31:38;100885.19;;;23.81;52.22
22333;BME280;11334;36.986;-121.936;2023-07-09T03:34:04;100886.91;;;23.60;52.76
22333;BME280;11334;36.986;-121.936;2023-07-09T03:36:31;100881.38;;;23.55;53.30
22333;BME280;11334;36.986;-121.936;2023-07-09T03:38:57;100886.41;;;23.40;53.53
22333;BME280;11334;36.986;-121.936;2023-07-09T03:41:23;100889.44;;;23.32;54.57
22333;BME280;11334;36.986;-121.936;2023-07-09T03:43:50;100894.75;;;23.16;55.29
22333;BME280;11334;36.986;-121.936;2023-07-09T03:46:18;100890.25;;;23.10;54.79
22333;BME280;11334;36.986;-121.936;2023-07-09T03:48:44;100889.31;;;23.05;53.32
22333;BME280;11334;36.986;-121.936;2023-07-09T03:51:10;100901.66;;;23.01;53.13
22333;BME280;11334;36.986;-121.936;2023-07-09T03:53:36;100892.34;;;22.97;52.68
22333;BME280;11334;36.986;-121.936;2023-07-09T03:56:03;100905.97;;;22.90;52.88
22333;BME280;11334;36.986;-121.936;2023-07-09T03:58:29;100906.91;;;22.84;52.77
22333;BME280;11334;36.986;-121.936;2023-07-09T04:03:22;100917.47;;;22.57;53.36
22333;BME280;11334;36.986;-121.936;2023-07-09T04:05:49;100917.94;;;22.54;53.47
22333;BME280;11334;36.986;-121.936;2023-07-09T04:08:15;100921.09;;;22.51;53.39
22333;BME280;11334;36.986;-121.936;2023-07-09T04:10:41;100929.16;;;22.40;53.56
22333;BME280;11334;36.986;-121.936;2023-07-09T04:13:08;100930.97;;;22.28;53.74
22333;BME280;11334;36.986;-121.936;2023-07-09T04:15:34;100925.28;;;22.18;53.98
22333;BME280;11334;36.986;-121.936;2023-07-09T04:18:00;100937.34;;;22.16;54.17
22333;BME280;11334;36.986;-121.936;2023-07-09T04:20:27;100946.38;;;22.10;54.22
22333;BME280;11334;36.986;-121.936;2023-07-09T04:22:53;100938.66;;;21.89;55.16
22333;BME280;11334;36.986;-121.936;2023-07-09T04:25:20;100948.16;;;21.74;55.79
22333;BME280;11334;36.986;-121.936;2023-07-09T04:27:46;100953.66;;;21.67;56.00
22333;BME280;11334;36.986;-121.936;2023-07-09T04:30:14;100958.03;;;21.62;56.21
22333;BME280;11334;36.986;-121.936;2023-07-09T04:32:43;100967.47;;;21.53;56.31
22333;BME280;11334;36.986;-121.936;2023-07-09T04:35:10;100974.78;;;21.46;56.53
22333;BME280;11334;36.986;-121.936;2023-07-09T04:37:38;100985.25;;;21.36;56.88
22333;BME280;11334;36.986;-121.936;2023-07-09T04:40:05;100984.44;;;21.29;56.71
22333;BME280;11334;36.986;-121.936;2023-07-09T04:42:32;100976.13;;;21.07;58.02
22333;BME280;11334;36.986;-121.936;2023-07-09T04:44:59;100989.41;;;21.02;57.94
22333;BME280;11334;36.986;-121.936;2023-07-09T04:47:25;100981.16;;;20.97;58.31
22333;BME280;11334;36.986;-121.936;2023-07-09T04:49:51;100989.72;;;20.88;58.81
22333;BME280;11334;36.986;-121.936;2023-07-09T04:52:17;100984.66;;;20.73;59.40
22333;BME280;11334;36.986;-121.936;2023-07-09T04:54:43;100997.06;;;20.68;59.67
22333;BME280;11334;36.986;-121.936;2023-07-09T04:57:11;101005.03;;;20.57;59.82
22333;BME280;11334;36.986;-121.936;2023-07-09T04:59:37;101004.19;;;20.43;60.54
22333;BME280;11334;36.986;-121.936;2023-07-09T05:02:04;101001.38;;;20.32;61.00
22333;BME280;11334;36.986;-121.936;2023-07-09T05:04:31;101001.81;;;20.29;61.24
22333;BME280;11334;36.986;-121.936;2023-07-09T05:06:58;101002.19;;;20.26;61.48
22333;BME280;11334;36.986;-121.936;2023-07-09T05:09:24;101001.22;;;20.14;61.44
22333;BME280;11334;36.986;-121.936;2023-07-09T05:11:51;101016.34;;;20.09;62.19
22333;BME280;11334;36.986;-121.936;2023-07-09T05:14:18;101020.09;;;20.01;62.20
22333;BME280;11334;36.986;-121.936;2023-07-09T05:16:45;101017.41;;;19.89;62.83
22333;BME280;11334;36.986;-121.936;2023-07-09T05:19:11;101024.22;;;19.91;62.87
22333;BME280;11334;36.986;-121.936;2023-07-09T05:21:38;101024.25;;;19.72;63.60
22333;BME280;11334;36.986;-121.936;2023-07-09T05:24:04;101012.22;;;19.62;64.17
22333;BME280;11334;36.986;-121.936;2023-07-09T05:26:31;101027.16;;;19.58;64.39
22333;BME280;11334;36.986;-121.936;2023-07-09T05:28:57;101023.22;;;19.47;64.53
22333;BME280;11334;36.986;-121.936;2023-07-09T05:31:24;101013.91;;;19.43;65.12
22333;BME280;11334;36.986;-121.936;2023-07-09T05:33:50;101017.59;;;19.30;65.61
22333;BME280;11334;36.986;-121.936;2023-07-09T05:36:16;101027.94;;;19.20;64.32
22333;BME280;11334;36.986;-121.936;2023-07-09T05:38:45;101031.88;;;19.24;62.60
22333;BME280;11334;36.986;-121.936;2023-07-09T05:41:12;101032.91;;;19.16;62.14
22333;BME280;11334;36.986;-121.936;2023-07-09T05:43:43;101033.28;;;19.07;62.13
22333;BME280;11334;36.986;-121.936;2023-07-09T05:46:13;101027.09;;;19.06;62.50
22333;BME280;11334;36.986;-121.936;2023-07-09T05:48:40;101031.66;;;19.06;62.67
22333;BME280;11334;36.986;-121.936;2023-07-09T05:51:06;101017.16;;;19.07;62.63
22333;BME280;11334;36.986;-121.936;2023-07-09T05:53:33;101026.47;;;19.04;62.66
22333;BME280;11334;36.986;-121.936;2023-07-09T05:55:59;101015.31;;;19.01;62.97
22333;BME280;11334;36.986;-121.936;2023-07-09T05:58:25;101015.72;;;18.98;62.70
22333;BME280;11334;36.986;-121.936;2023-07-09T06:00:52;101016.53;;;18.92;63.41
22333;BME280;11334;36.986;-121.936;2023-07-09T06:03:20;101014.88;;;18.98;63.02
22333;BME280;11334;36.986;-121.936;2023-07-09T06:05:47;101017.72;;;18.90;63.15
22333;BME280;11334;36.986;-121.936;2023-07-09T06:08:19;101016.47;;;18.73;63.83
22333;BME280;11334;36.986;-121.936;2023-07-09T06:10:53;101012.28;;;18.64;64.38
22333;BME280;11334;36.986;-121.936;2023-07-09T06:13:20;101012.06;;;18.59;64.94
22333;BME280;11334;36.986;-121.936;2023-07-09T06:15:48;101003.75;;;18.48;64.95
22333;BME280;11334;36.986;-121.936;2023-07-09T06:18:14;101003.34;;;18.44;65.53
22333;BME280;11334;36.986;-121.936;2023-07-09T06:20:41;101006.44;;;18.41;65.54
22333;BME280;11334;36.986;-121.936;2023-07-09T06:23:07;101009.00;;;18.22;66.32
22333;BME280;11334;36.986;-121.936;2023-07-09T06:25:33;101010.63;;;18.17;66.80
22333;BME280;11334;36.986;-121.936;2023-07-09T06:27:59;101007.00;;;17.97;67.48
22333;BME280;11334;36.986;-121.936;2023-07-09T06:30:26;101016.28;;;18.01;67.84
22333;BME280;11334;36.986;-121.936;2023-07-09T06:32:52;101001.56;;;17.91;67.41
22333;BME280;11334;36.986;-121.936;2023-07-09T06:35:18;101001.97;;;17.88;67.36
22333;BME280;11334;36.986;-121.936;2023-07-09T06:37:44;101003.28;;;17.65;68.08
22333;BME280;11334;36.986;-121.936;2023-07-09T06:40:12;100999.56;;;17.66;67.89
22333;BME280;11334;36.986;-121.936;2023-07-09T06:42:38;101007.16;;;17.62;68.15
22333;BME280;11334;36.986;-121.936;2023-07-09T06:45:05;101007.16;;;17.62;68.19
22333;BME280;11334;36.986;-121.936;2023-07-09T06:47:31;100990.34;;;17.47;68.53
22333;BME280;11334;36.986;-121.936;2023-07-09T06:49:57;101006.22;;;17.49;68.63
22333;BME280;11334;36.986;-121.936;2023-07-09T06:52:23;101004.00;;;17.52;68.62
22333;BME280;11334;36.986;-121.936;2023-07-09T06:54:50;101004.16;;;17.44;69.38
22333;BME280;11334;36.986;-121.936;2023-07-09T06:57:16;101012.53;;;17.41;69.35
22333;BME280;11334;36.986;-121.936;2023-07-09T06:59:42;101007.34;;;17.34;69.44
22333;BME280;11334;36.986;-121.936;2023-07-09T07:02:08;101013.22;;;17.23;70.11
22333;BME280;11334;36.986;-121.936;2023-07-09T07:04:35;101009.25;;;17.19;70.52
22333;BME280;11334;36.986;-121.936;2023-07-09T07:07:01;100996.41;;;16.94;71.08
22333;BME280;11334;36.986;-121.936;2023-07-09T07:09:27;101006.75;;;16.97;70.54
22333;BME280;11334;36.986;-121.936;2023-07-09T07:11:53;101005.97;;;16.82;70.94
22333;BME280;11334;36.986;-121.936;2023-07-09T07:14:20;101000.50;;;16.90;70.36
22333;BME280;11334;36.986;-121.936;2023-07-09T07:16:46;101008.50;;;16.90;70.13
22333;BME280;11334;36.986;-121.936;2023-07-09T07:19:12;100995.78;;;16.92;69.96
22333;BME280;11334;36.986;-121.936;2023-07-09T07:21:38;101004.59;;;16.86;70.24
22333;BME280;11334;36.986;-121.936;2023-07-09T07:24:05;101006.22;;;16.87;70.07
22333;BME280;11334;36.986;-121.936;2023-07-09T07:26:31;101008.72;;;16.88;70.15
22333;BME280;11334;36.986;-121.936;2023-07-09T07:28:57;100996.09;;;16.82;70.28
22333;BME280;11334;36.986;-121.936;2023-07-09T07:31:23;100999.97;;;16.80;70.35
22333;BME280;11334;36.986;-121.936;2023-07-09T07:33:51;100996.41;;;16.73;70.98
22333;BME280;11334;36.986;-121.936;2023-07-09T07:36:17;100997.38;;;16.66;71.19
22333;BME280;11334;36.986;-121.936;2023-07-09T07:38:43;100997.97;;;16.47;71.71
22333;BME280;11334;36.986;-121.936;2023-07-09T07:41:09;100995.38;;;16.53;71.36
22333;BME280;11334;36.986;-121.936;2023-07-09T07:43:36;100989.81;;;16.55;70.98
22333;BME280;11334;36.986;-121.936;2023-07-09T07:46:03;100996.94;;;16.48;71.06
22333;BME280;11334;36.986;-121.936;2023-07-09T07:48:29;100992.50;;;16.41;71.40
22333;BME280;11334;36.986;-121.936;2023-07-09T07:50:59;100991.63;;;16.34;71.71
22333;BME280;11334;36.986;-121.936;2023-07-09T07:53:27;100991.91;;;16.39;71.59
22333;BME280;11334;36.986;-121.936;2023-07-09T07:55:56;100979.19;;;16.26;71.76
22333;BME280;11334;36.986;-121.936;2023-07-09T07:58:22;100985.28;;;16.20;72.04
22333;BME280;11334;36.986;-121.936;2023-07-09T08:00:48;100980.78;;;16.21;71.93
22333;BME280;11334;36.986;-121.936;2023-07-09T08:03:15;100979.38;;;16.25;71.93
22333;BME280;11334;36.986;-121.936;2023-07-09T08:05:41;100979.56;;;16.23;72.04
22333;BME280;11334;36.986;-121.936;2023-07-09T08:08:07;100976.44;;;16.20;71.97
22333;BME280;11334;36.986;-121.936;2023-07-09T08:10:33;100970.78;;;16.01;72.55
22333;BME280;11334;36.986;-121.936;2023-07-09T08:12:59;100971.16;;;15.98;72.21
22333;BME280;11334;36.986;-121.936;2023-07-09T08:15:26;100976.06;;;15.80;73.25
22333;BME280;11334;36.986;-121.936;2023-07-09T08:17:53;100967.41;;;15.78;73.54
22333;BME280;11334;36.986;-121.936;2023-07-09T08:20:19;100975.50;;;15.70;73.91
22333;BME280;11334;36.986;-121.936;2023-07-09T08:22:45;100975.41;;;15.64;74.62
22333;BME280;11334;36.986;-121.936;2023-07-09T08:25:12;100971.44;;;15.60;74.93
22333;BME280;11334;36.986;-121.936;2023-07-09T08:27:38;100973.31;;;15.59;75.24
22333;BME280;11334;36.986;-121.936;2023-07-09T08:30:05;100972.38;;;15.67;75.12
22333;BME280;11334;36.986;-121.936;2023-07-09T08:32:32;100976.41;;;15.63;75.91
22333;BME280;11334;36.986;-121.936;2023-07-09T08:34:58;100974.47;;;15.71;75.89
22333;BME280;11334;36.986;-121.936;2023-07-09T08:37:24;100968.50;;;15.69;75.55
22333;BME280;11334;36.986;-121.936;2023-07-09T08:39:50;100970.16;;;15.70;76.04
22333;BME280;11334;36.986;-121.936;2023-07-09T08:42:39;100959.09;;;15.73;75.91
22333;BME280;11334;36.986;-121.936;2023-07-09T08:47:52;100971.91;;;15.63;77.27
22333;BME280;11334;36.986;-121.936;2023-07-09T08:53:38;100976.31;;;15.71;77.47
22333;BME280;11334;36.986;-121.936;2023-07-09T08:56:09;100982.16;;;15.74;77.37
22333;BME280;11334;36.986;-121.936;2023-07-09T08:58:36;100980.97;;;15.77;77.18
22333;BME280;11334;36.986;-121.936;2023-07-09T09:01:24;100977.63;;;15.89;77.31
22333;BME280;11334;36.986;-121.936;2023-07-09T09:03:59;100967.78;;;15.89;76.96
22333;BME280;11334;36.986;-121.936;2023-07-09T09:06:28;100976.50;;;15.98;76.71
22333;BME280;11334;36.986;-121.936;2023-07-09T09:11:49;100978.34;;;15.97;76.55
22333;BME280;11334;36.986;-121.936;2023-07-09T09:14:19;100978.91;;;15.93;76.37
22333;BME280;11334;36.986;-121.936;2023-07-09T09:16:51;100982.34;;;16.01;76.44
22333;BME280;11334;36.986;-121.936;2023-07-09T09:19:33;100978.72;;;16.09;75.60
22333;BME280;11334;36.986;-121.936;2023-07-09T09:22:11;100978.28;;;16.19;75.58
22333;BME280;11334;36.986;-121.936;2023-07-09T09:27:17;100976.53;;;16.26;75.86
22333;BME280;11334;36.986;-121.936;2023-07-09T09:29:43;100982.53;;;16.28;75.42
22333;BME280;11334;36.986;-121.936;2023-07-09T09:32:31;100981.50;;;16.29;75.44
22333;BME280;11334;36.986;-121.936;2023-07-09T09:35:12;100974.28;;;16.30;75.21
22333;BME280;11334;36.986;-121.936;2023-07-09T09:37:39;100986.47;;;16.32;75.27
22333;BME280;11334;36.986;-121.936;2023-07-09T09:40:09;100987.50;;;16.31;75.48
22333;BME280;11334;36.986;-121.936;2023-07-09T09:42:35;100989.97;;;16.33;75.24
22333;BME280;11334;36.986;-121.936;2023-07-09T09:45:02;100992.75;;;16.25;75.46
22333;BME280;11334;36.986;-121.936;2023-07-09T09:47:28;100994.50;;;16.18;76.04
22333;BME280;11334;36.986;-121.936;2023-07-09T09:49:54;100994.41;;;16.26;75.91
22333;BME280;11334;36.986;-121.936;2023-07-09T09:52:26;100996.16;;;16.33;75.23
22333;BME280;11334;36.986;-121.936;2023-07-09T09:55:03;100992.84;;;16.31;75.37
22333;BME280;11334;36.986;-121.936;2023-07-09T09:57:30;100995.16;;;16.20;75.91
22333;BME280;11334;36.986;-121.936;2023-07-09T09:59:58;100990.34;;;16.30;75.77
22333;BME280;11334;36.986;-121.936;2023-07-09T10:02:25;100991.81;;;16.32;75.17
22333;BME280;11334;36.986;-121.936;2023-07-09T10:04:51;100986.00;;;16.29;75.20
22333;BME280;11334;36.986;-121.936;2023-07-09T10:07:43;100991.81;;;16.32;74.55
22333;BME280;11334;36.986;-121.936;2023-07-09T10:10:15;100981.88;;;16.26;74.35
22333;BME280;11334;36.986;-121.936;2023-07-09T10:12:53;100992.38;;;16.28;74.41
22333;BME280;11334;36.986;-121.936;2023-07-09T10:15:48;100992.28;;;16.21;74.46
22333;BME280;11334;36.986;-121.936;2023-07-09T10:21:22;100994.88;;;16.15;74.54
22333;BME280;11334;36.986;-121.936;2023-07-09T10:27:00;100999.91;;;16.10;75.01
22333;BME280;11334;36.986;-121.936;2023-07-09T10:35:18;101001.13;;;16.08;75.34
22333;BME280;11334;36.986;-121.936;2023-07-09T10:38:24;100997.53;;;16.15;74.93
22333;BME280;11334;36.986;-121.936;2023-07-09T10:40:58;100998.06;;;16.11;74.96
22333;BME280;11334;36.986;-121.936;2023-07-09T10:43:37;101000.47;;;16.06;75.18
22333;BME280;11334;36.986;-121.936;2023-07-09T10:46:16;100993.84;;;16.02;74.70
22333;BME280;11334;36.986;-121.936;2023-07-09T10:48:49;101005.38;;;16.02;75.13
22333;BME280;11334;36.986;-121.936;2023-07-09T10:51:24;101006.75;;;15.84;75.47
22333;BME280;11334;36.986;-121.936;2023-07-09T10:56:35;101010.25;;;15.84;75.37
22333;BME280;11334;36.986;-121.936;2023-07-09T11:01:47;101010.06;;;15.72;75.66
22333;BME280;11334;36.986;-121.936;2023-07-09T11:04:37;101013.28;;;15.67;75.84
22333;BME280;11334;36.986;-121.936;2023-07-09T11:07:19;101005.97;;;15.61;75.61
22333;BME280;11334;36.986;-121.936;2023-07-09T11:09:48;100996.50;;;15.45;76.26
22333;BME280;11334;36.986;-121.936;2023-07-09T11:15:27;101009.72;;;15.38;76.53
22333;BME280;11334;36.986;-121.936;2023-07-09T11:17:57;101008.03;;;15.23;77.10
22333;BME280;11334;36.986;-121.936;2023-07-09T11:20:33;101001.38;;;15.19;76.70
22333;BME280;11334;36.986;-121.936;2023-07-09T11:23:05;101010.03;;;15.21;76.80
22333;BME280;11334;36.986;-121.936;2023-07-09T11:25:42;101011.06;;;15.20;77.08
22333;BME280;11334;36.986;-121.936;2023-07-09T11:28:08;101019.16;;;15.04;77.40
22333;BME280;11334;36.986;-121.936;2023-07-09T11:30:52;101007.47;;;15.05;77.24
22333;BME280;11334;36.986;-121.936;2023-07-09T11:33:29;101004.63;;;15.07;77.63
22333;BME280;11334;36.986;-121.936;2023-07-09T11:36:10;101008.53;;;14.96;77.96
22333;BME280;11334;36.986;-121.936;2023-07-09T11:41:41;101010.50;;;15.02;77.57
22333;BME280;11334;36.986;-121.936;2023-07-09T11:44:25;101006.69;;;14.97;77.50
22333;BME280;11334;36.986;-121.936;2023-07-09T11:47:17;101002.16;;;14.83;77.92
22333;BME280;11334;36.986;-121.936;2023-07-09T11:50:24;101008.47;;;14.82;77.85
22333;BME280;11334;36.986;-121.936;2023-07-09T11:53:01;101013.25;;;14.64;78.24
22333;BME280;11334;36.986;-121.936;2023-07-09T11:55:47;101007.81;;;14.58;79.02
22333;BME280;11334;36.986;-121.936;2023-07-09T11:58:16;101009.94;;;14.62;79.00
22333;BME280;11334;36.986;-121.936;2023-07-09T12:00:48;101010.81;;;14.55;79.53
22333;BME280;11334;36.986;-121.936;2023-07-09T12:03:23;101005.22;;;14.42;79.81
22333;BME280;11334;36.986;-121.936;2023-07-09T12:05:54;101001.78;;;14.34;80.73
22333;BME280;11334;36.986;-121.936;2023-07-09T12:08:43;101005.22;;;14.42;81.00
22333;BME280;11334;36.986;-121.936;2023-07-09T12:11:27;101018.03;;;14.47;81.28
22333;BME280;11334;36.986;-121.936;2023-07-09T12:13:54;101014.09;;;14.35;82.65
22333;BME280;11334;36.986;-121.936;2023-07-09T12:16:32;101011.91;;;14.38;83.13
22333;BME280;11334;36.986;-121.936;2023-07-09T12:18:59;101014.84;;;14.51;83.69
22333;BME280;11334;36.986;-121.936;2023-07-09T12:21:26;101022.03;;;14.51;83.82
22333;BME280;11334;36.986;-121.936;2023-07-09T12:23:54;101028.69;;;14.47;83.83
22333;BME280;11334;36.986;-121.936;2023-07-09T12:26:22;101028.34;;;14.50;84.20
22333;BME280;11334;36.986;-121.936;2023-07-09T12:28:58;101030.13;;;14.57;83.75
22333;BME280;11334;36.986;-121.936;2023-07-09T12:31:29;101022.84;;;14.51;84.56
22333;BME280;11334;36.986;-121.936;2023-07-09T12:33:57;101035.13;;;14.60;84.03
22333;BME280;11334;36.986;-121.936;2023-07-09T12:36:25;101036.78;;;14.61;83.99
22333;BME280;11334;36.986;-121.936;2023-07-09T12:38:55;101044.44;;;14.64;83.74
22333;BME280;11334;36.986;-121.936;2023-07-09T12:41:38;101041.06;;;14.70;83.75
22333;BME280;11334;36.986;-121.936;2023-07-09T12:44:05;101043.41;;;14.73;83.98
22333;BME280;11334;36.986;-121.936;2023-07-09T12:46:32;101037.22;;;14.72;83.48
22333;BME280;11334;36.986;-121.936;2023-07-09T12:48:58;101034.22;;;14.75;83.22
22333;BME280;11334;36.986;-121.936;2023-07-09T12:51:28;101044.16;;;14.81;83.46
22333;BME280;11334;36.986;-121.936;2023-07-09T12:54:13;101039.13;;;14.86;82.69
22333;BME280;11334;36.986;-121.936;2023-07-09T12:56:40;101036.59;;;14.92;80.84
22333;BME280;11334;36.986;-121.936;2023-07-09T13:01:41;101042.25;;;14.97;79.52
22333;BME280;11334;36.986;-121.936;2023-07-09T13:04:11;101046.84;;;15.03;79.65
22333;BME280;11334;36.986;-121.936;2023-07-09T13:06:38;101035.81;;;15.06;79.81
22333;BME280;11334;36.986;-121.936;2023-07-09T13:09:19;101036.19;;;15.03;79.23
22333;BME280;11334;36.986;-121.936;2023-07-09T13:11:46;101048.84;;;15.09;79.41